sensor_id;sensor_type;location;lat;lon;timestamp;P1;durP1;ratioP1;P2;durP2;ratioP2
61200;SDS011;47065;52.898;6.992;2023-05-17T00:00:09;25.27;;;7.45;;
61200;SDS011;47065;52.898;6.992;2023-05-17T00:02:35;25.27;;;6.43;;
61200;SDS011;47065;52.898;6.992;2023-05-17T00:05:01;25.20;;;6.57;;
61200;SDS011;47065;52.898;6.992;2023-05-17T00:07:27;21.27;;;5.20;;
61200;SDS011;47065;52.898;6.992;2023-05-17T00:09:53;15.23;;;4.93;;
61200;SDS011;47065;52.898;6.992;2023-05-17T00:12:18;18.02;;;5.18;;
61200;SDS011;47065;52.898;6.992;2023-05-17T00:14:44;32.25;;;6.32;;
61200;SDS011;47065;52.898;6.992;2023-05-17T00:17:10;16.88;;;5.47;;
61200;SDS011;47065;52.898;6.992;2023-05-17T00:19:35;20.08;;;4.25;;
61200;SDS011;47065;52.898;6.992;2023-05-17T00:22:01;23.40;;;5.28;;
61200;SDS011;47065;52.898;6.992;2023-05-17T00:24:26;19.05;;;4.85;;
61200;SDS011;47065;52.898;6.992;2023-05-17T00:26:52;18.77;;;4.05;;
61200;SDS011;47065;52.898;6.992;2023-05-17T00:29:17;18.17;;;3.80;;
61200;SDS011;47065;52.898;6.992;2023-05-17T00:31:43;17.00;;;3.30;;
61200;SDS011;47065;52.898;6.992;2023-05-17T00:34:08;23.13;;;4.47;;
61200;SDS011;47065;52.898;6.992;2023-05-17T00:36:34;16.20;;;3.67;;
61200;SDS011;47065;52.898;6.992;2023-05-17T00:39:00;24.73;;;4.13;;
61200;SDS011;47065;52.898;6.992;2023-05-17T00:41:25;21.45;;;3.95;;
61200;SDS011;47065;52.898;6.992;2023-05-17T00:43:51;26.17;;;4.03;;
61200;SDS011;47065;52.898;6.992;2023-05-17T00:46:17;17.83;;;4.38;;
61200;SDS011;47065;52.898;6.992;2023-05-17T00:48:42;18.20;;;3.50;;
61200;SDS011;47065;52.898;6.992;2023-05-17T00:51:08;21.88;;;4.50;;
61200;SDS011;47065;52.898;6.992;2023-05-17T00:53:35;18.17;;;4.22;;
61200;SDS011;47065;52.898;6.992;2023-05-17T00:56:01;24.73;;;5.03;;
61200;SDS011;47065;52.898;6.992;2023-05-17T00:58:28;16.60;;;3.50;;
61200;SDS011;47065;52.898;6.992;2023-05-17T01:00:54;20.27;;;3.85;;
61200;SDS011;47065;52.898;6.992;2023-05-17T01:03:20;20.58;;;3.70;;
61200;SDS011;47065;52.898;6.992;2023-05-17T01:05:48;33.60;;;6.80;;
61200;SDS011;47065;52.898;6.992;2023-05-17T01:08:15;20.55;;;3.80;;
61200;SDS011;47065;52.898;6.992;2023-05-17T01:13:14;12.48;;;3.50;;
61200;SDS011;47065;52.898;6.992;2023-05-17T01:15:49;29.42;;;5.30;;
61200;SDS011;47065;52.898;6.992;2023-05-17T01:18:25;17.60;;;3.95;;
61200;SDS011;47065;52.898;6.992;2023-05-17T01:20:59;23.02;;;4.57;;
61200;SDS011;47065;52.898;6.992;2023-05-17T01:23:44;20.42;;;3.67;;
61200;SDS011;47065;52.898;6.992;2023-05-17T01:29:08;20.17;;;4.43;;
61200;SDS011;47065;52.898;6.992;2023-05-17T01:31:35;19.90;;;4.40;;
61200;SDS011;47065;52.898;6.992;2023-05-17T01:34:05;18.35;;;3.90;;
61200;SDS011;47065;52.898;6.992;2023-05-17T01:36:31;19.60;;;3.72;;
61200;SDS011;47065;52.898;6.992;2023-05-17T01:38:57;19.63;;;4.03;;
61200;SDS011;47065;52.898;6.992;2023-05-17T01:44:01;17.60;;;3.97;;
61200;SDS011;47065;52.898;6.992;2023-05-17T01:46:42;20.60;;;4.45;;
61200;SDS011;47065;52.898;6.992;2023-05-17T01:49:14;26.35;;;5.63;;
61200;SDS011;47065;52.898;6.992;2023-05-17T01:54:50;17.20;;;3.83;;
61200;SDS011;47065;52.898;6.992;2023-05-17T01:57:28;16.10;;;3.25;;
61200;SDS011;47065;52.898;6.992;2023-05-17T01:59:58;22.33;;;4.85;;
61200;SDS011;47065;52.898;6.992;2023-05-17T02:02:26;19.27;;;4.70;;
61200;SDS011;47065;52.898;6.992;2023-05-17T02:04:52;16.25;;;4.13;;
61200;SDS011;47065;52.898;6.992;2023-05-17T02:07:18;24.63;;;5.55;;
61200;SDS011;47065;52.898;6.992;2023-05-17T02:09:44;22.27;;;4.30;;
61200;SDS011;47065;52.898;6.992;2023-05-17T02:12:10;20.05;;;5.05;;
61200;SDS011;47065;52.898;6.992;2023-05-17T02:14:35;19.17;;;4.13;;
61200;SDS011;47065;52.898;6.992;2023-05-17T02:17:01;14.73;;;3.95;;
61200;SDS011;47065;52.898;6.992;2023-05-17T02:19:29;20.00;;;5.45;;
61200;SDS011;47065;52.898;6.992;2023-05-17T02:21:55;22.95;;;4.82;;
61200;SDS011;47065;52.898;6.992;2023-05-17T02:24:21;18.20;;;3.75;;
61200;SDS011;47065;52.898;6.992;2023-05-17T02:26:46;18.65;;;3.75;;
61200;SDS011;47065;52.898;6.992;2023-05-17T02:29:12;17.85;;;4.97;;
61200;SDS011;47065;52.898;6.992;2023-05-17T02:31:38;21.80;;;5.63;;
61200;SDS011;47065;52.898;6.992;2023-05-17T02:34:04;18.73;;;4.32;;
61200;SDS011;47065;52.898;6.992;2023-05-17T02:36:29;21.10;;;3.92;;
61200;SDS011;47065;52.898;6.992;2023-05-17T02:38:56;32.00;;;6.60;;
61200;SDS011;47065;52.898;6.992;2023-05-17T02:41:22;23.02;;;5.00;;
61200;SDS011;47065;52.898;6.992;2023-05-17T02:43:47;29.58;;;5.32;;
61200;SDS011;47065;52.898;6.992;2023-05-17T02:46:13;27.55;;;4.50;;
61200;SDS011;47065;52.898;6.992;2023-05-17T02:48:39;24.27;;;4.78;;
61200;SDS011;47065;52.898;6.992;2023-05-17T02:51:05;26.10;;;3.83;;
61200;SDS011;47065;52.898;6.992;2023-05-17T02:53:31;21.88;;;4.03;;
61200;SDS011;47065;52.898;6.992;2023-05-17T02:55:56;22.08;;;5.35;;
61200;SDS011;47065;52.898;6.992;2023-05-17T02:58:22;14.23;;;3.00;;
61200;SDS011;47065;52.898;6.992;2023-05-17T03:00:49;23.50;;;5.45;;
61200;SDS011;47065;52.898;6.992;2023-05-17T03:03:15;32.03;;;5.45;;
61200;SDS011;47065;52.898;6.992;2023-05-17T03:05:41;24.50;;;4.45;;
61200;SDS011;47065;52.898;6.992;2023-05-17T03:08:06;12.10;;;3.22;;
61200;SDS011;47065;52.898;6.992;2023-05-17T03:10:32;20.92;;;3.58;;
61200;SDS011;47065;52.898;6.992;2023-05-17T03:12:58;21.33;;;4.35;;
61200;SDS011;47065;52.898;6.992;2023-05-17T03:15:23;22.25;;;5.13;;
61200;SDS011;47065;52.898;6.992;2023-05-17T03:17:53;9.52;;;2.97;;
61200;SDS011;47065;52.898;6.992;2023-05-17T03:20:21;17.77;;;4.13;;
61200;SDS011;47065;52.898;6.992;2023-05-17T03:22:47;16.98;;;3.65;;
61200;SDS011;47065;52.898;6.992;2023-05-17T03:25:13;13.50;;;3.13;;
61200;SDS011;47065;52.898;6.992;2023-05-17T03:27:39;14.95;;;4.28;;
61200;SDS011;47065;52.898;6.992;2023-05-17T03:30:04;16.75;;;4.60;;
61200;SDS011;47065;52.898;6.992;2023-05-17T03:32:30;13.30;;;3.63;;
61200;SDS011;47065;52.898;6.992;2023-05-17T03:34:56;17.98;;;3.47;;
61200;SDS011;47065;52.898;6.992;2023-05-17T03:37:22;15.75;;;3.58;;
61200;SDS011;47065;52.898;6.992;2023-05-17T03:39:47;19.33;;;3.92;;
61200;SDS011;47065;52.898;6.992;2023-05-17T03:42:13;16.50;;;4.22;;
61200;SDS011;47065;52.898;6.992;2023-05-17T03:44:39;24.80;;;3.90;;
61200;SDS011;47065;52.898;6.992;2023-05-17T03:47:05;21.10;;;4.47;;
61200;SDS011;47065;52.898;6.992;2023-05-17T03:49:31;14.15;;;4.03;;
61200;SDS011;47065;52.898;6.992;2023-05-17T03:51:57;16.33;;;3.63;;
61200;SDS011;47065;52.898;6.992;2023-05-17T03:54:22;17.10;;;3.83;;
61200;SDS011;47065;52.898;6.992;2023-05-17T03:56:48;15.50;;;3.65;;
61200;SDS011;47065;52.898;6.992;2023-05-17T03:59:14;11.55;;;3.65;;
61200;SDS011;47065;52.898;6.992;2023-05-17T04:01:41;16.77;;;3.22;;
61200;SDS011;47065;52.898;6.992;2023-05-17T04:04:07;16.33;;;5.97;;
61200;SDS011;47065;52.898;6.992;2023-05-17T04:06:33;16.42;;;3.72;;
61200;SDS011;47065;52.898;6.992;2023-05-17T04:08:58;16.10;;;3.95;;
61200;SDS011;47065;52.898;6.992;2023-05-17T04:11:24;14.85;;;4.38;;
61200;SDS011;47065;52.898;6.992;2023-05-17T04:13:52;14.63;;;3.92;;
61200;SDS011;47065;52.898;6.992;2023-05-17T04:16:18;17.77;;;4.32;;
61200;SDS011;47065;52.898;6.992;2023-05-17T04:18:44;16.88;;;4.32;;
61200;SDS011;47065;52.898;6.992;2023-05-17T04:21:10;24.00;;;3.95;;
61200;SDS011;47065;52.898;6.992;2023-05-17T04:23:35;20.92;;;3.65;;
61200;SDS011;47065;52.898;6.992;2023-05-17T04:26:02;16.00;;;3.45;;
61200;SDS011;47065;52.898;6.992;2023-05-17T04:28:29;22.15;;;4.32;;
61200;SDS011;47065;52.898;6.992;2023-05-17T04:30:55;18.70;;;3.20;;
61200;SDS011;47065;52.898;6.992;2023-05-17T04:33:21;19.27;;;3.65;;
61200;SDS011;47065;52.898;6.992;2023-05-17T04:35:47;19.55;;;3.47;;
61200;SDS011;47065;52.898;6.992;2023-05-17T04:38:14;13.32;;;3.42;;
61200;SDS011;47065;52.898;6.992;2023-05-17T04:40:40;22.33;;;4.32;;
61200;SDS011;47065;52.898;6.992;2023-05-17T04:43:06;22.30;;;3.83;;
61200;SDS011;47065;52.898;6.992;2023-05-17T04:45:32;17.95;;;3.50;;
61200;SDS011;47065;52.898;6.992;2023-05-17T04:47:58;12.73;;;2.92;;
61200;SDS011;47065;52.898;6.992;2023-05-17T04:50:24;18.35;;;3.20;;
61200;SDS011;47065;52.898;6.992;2023-05-17T04:52:50;28.88;;;4.95;;
61200;SDS011;47065;52.898;6.992;2023-05-17T04:55:16;11.77;;;2.67;;
61200;SDS011;47065;52.898;6.992;2023-05-17T04:57:42;16.88;;;3.50;;
61200;SDS011;47065;52.898;6.992;2023-05-17T05:00:07;18.95;;;3.30;;
61200;SDS011;47065;52.898;6.992;2023-05-17T05:02:34;13.20;;;3.90;;
61200;SDS011;47065;52.898;6.992;2023-05-17T05:05:00;16.38;;;3.95;;
61200;SDS011;47065;52.898;6.992;2023-05-17T05:07:27;19.45;;;4.60;;
61200;SDS011;47065;52.898;6.992;2023-05-17T05:09:53;13.38;;;2.22;;
61200;SDS011;47065;52.898;6.992;2023-05-17T05:12:18;22.33;;;3.25;;
61200;SDS011;47065;52.898;6.992;2023-05-17T05:14:44;11.77;;;3.47;;
61200;SDS011;47065;52.898;6.992;2023-05-17T05:17:09;15.80;;;2.95;;
61200;SDS011;47065;52.898;6.992;2023-05-17T05:19:35;16.40;;;3.13;;
61200;SDS011;47065;52.898;6.992;2023-05-17T05:22:00;14.85;;;3.28;;
61200;SDS011;47065;52.898;6.992;2023-05-17T05:24:26;16.52;;;2.63;;
61200;SDS011;47065;52.898;6.992;2023-05-17T05:26:52;14.00;;;2.08;;
61200;SDS011;47065;52.898;6.992;2023-05-17T05:29:17;10.40;;;2.50;;
61200;SDS011;47065;52.898;6.992;2023-05-17T05:31:43;11.05;;;2.35;;
61200;SDS011;47065;52.898;6.992;2023-05-17T05:34:10;9.40;;;2.30;;
61200;SDS011;47065;52.898;6.992;2023-05-17T05:36:35;9.55;;;2.28;;
61200;SDS011;47065;52.898;6.992;2023-05-17T05:39:01;6.78;;;2.13;;
61200;SDS011;47065;52.898;6.992;2023-05-17T05:41:27;5.13;;;1.75;;
61200;SDS011;47065;52.898;6.992;2023-05-17T05:43:53;11.35;;;2.00;;
61200;SDS011;47065;52.898;6.992;2023-05-17T05:46:18;10.10;;;2.08;;
61200;SDS011;47065;52.898;6.992;2023-05-17T05:48:44;10.10;;;1.75;;
61200;SDS011;47065;52.898;6.992;2023-05-17T05:51:10;7.47;;;1.83;;
61200;SDS011;47065;52.898;6.992;2023-05-17T05:53:36;11.18;;;2.50;;
61200;SDS011;47065;52.898;6.992;2023-05-17T05:56:02;12.65;;;2.00;;
61200;SDS011;47065;52.898;6.992;2023-05-17T05:58:28;8.68;;;1.85;;
61200;SDS011;47065;52.898;6.992;2023-05-17T06:00:55;6.47;;;1.70;;
61200;SDS011;47065;52.898;6.992;2023-05-17T06:03:21;9.88;;;2.03;;
61200;SDS011;47065;52.898;6.992;2023-05-17T06:05:47;10.98;;;1.80;;
61200;SDS011;47065;52.898;6.992;2023-05-17T06:08:13;6.82;;;1.77;;
61200;SDS011;47065;52.898;6.992;2023-05-17T06:10:39;8.35;;;1.70;;
61200;SDS011;47065;52.898;6.992;2023-05-17T06:13:04;9.32;;;2.42;;
61200;SDS011;47065;52.898;6.992;2023-05-17T06:15:30;12.63;;;2.88;;
61200;SDS011;47065;52.898;6.992;2023-05-17T06:17:56;8.50;;;1.67;;
61200;SDS011;47065;52.898;6.992;2023-05-17T06:20:21;11.23;;;2.42;;
61200;SDS011;47065;52.898;6.992;2023-05-17T06:22:47;8.35;;;2.10;;
61200;SDS011;47065;52.898;6.992;2023-05-17T06:25:13;11.68;;;2.15;;
61200;SDS011;47065;52.898;6.992;2023-05-17T06:27:38;6.43;;;1.52;;
61200;SDS011;47065;52.898;6.992;2023-05-17T06:30:04;16.75;;;1.75;;
61200;SDS011;47065;52.898;6.992;2023-05-17T06:32:31;8.90;;;2.00;;
61200;SDS011;47065;52.898;6.992;2023-05-17T06:34:56;13.75;;;2.72;;
61200;SDS011;47065;52.898;6.992;2023-05-17T06:37:22;9.55;;;2.47;;
61200;SDS011;47065;52.898;6.992;2023-05-17T06:39:51;8.30;;;1.60;;
61200;SDS011;47065;52.898;6.992;2023-05-17T06:42:17;10.77;;;1.98;;
61200;SDS011;47065;52.898;6.992;2023-05-17T06:44:42;8.73;;;2.33;;
61200;SDS011;47065;52.898;6.992;2023-05-17T06:47:08;9.15;;;1.80;;
61200;SDS011;47065;52.898;6.992;2023-05-17T06:49:34;9.68;;;2.67;;
61200;SDS011;47065;52.898;6.992;2023-05-17T06:52:01;14.10;;;1.85;;
61200;SDS011;47065;52.898;6.992;2023-05-17T06:54:29;11.55;;;2.15;;
61200;SDS011;47065;52.898;6.992;2023-05-17T06:57:01;12.82;;;2.90;;
61200;SDS011;47065;52.898;6.992;2023-05-17T06:59:27;10.27;;;1.98;;
61200;SDS011;47065;52.898;6.992;2023-05-17T07:01:55;13.05;;;2.63;;
61200;SDS011;47065;52.898;6.992;2023-05-17T07:04:21;13.55;;;2.28;;
61200;SDS011;47065;52.898;6.992;2023-05-17T07:06:47;9.93;;;2.53;;
61200;SDS011;47065;52.898;6.992;2023-05-17T07:09:12;10.68;;;1.88;;
61200;SDS011;47065;52.898;6.992;2023-05-17T07:11:38;9.73;;;2.92;;
61200;SDS011;47065;52.898;6.992;2023-05-17T07:14:03;13.57;;;2.25;;
61200;SDS011;47065;52.898;6.992;2023-05-17T07:16:29;12.38;;;2.72;;
61200;SDS011;47065;52.898;6.992;2023-05-17T07:18:55;14.35;;;2.95;;
61200;SDS011;47065;52.898;6.992;2023-05-17T07:21:21;14.60;;;3.22;;
61200;SDS011;47065;52.898;6.992;2023-05-17T07:23:48;10.05;;;1.88;;
61200;SDS011;47065;52.898;6.992;2023-05-17T07:26:14;14.73;;;3.03;;
61200;SDS011;47065;52.898;6.992;2023-05-17T07:28:41;10.23;;;2.35;;
61200;SDS011;47065;52.898;6.992;2023-05-17T07:31:08;19.98;;;4.18;;
61200;SDS011;47065;52.898;6.992;2023-05-17T07:33:33;13.68;;;3.45;;
61200;SDS011;47065;52.898;6.992;2023-05-17T07:35:59;11.55;;;3.10;;
61200;SDS011;47065;52.898;6.992;2023-05-17T07:38:24;10.90;;;2.85;;
61200;SDS011;47065;52.898;6.992;2023-05-17T07:40:50;9.60;;;2.53;;
61200;SDS011;47065;52.898;6.992;2023-05-17T07:43:16;11.05;;;2.85;;
61200;SDS011;47065;52.898;6.992;2023-05-17T07:45:44;14.57;;;2.53;;
61200;SDS011;47065;52.898;6.992;2023-05-17T07:48:10;13.50;;;2.45;;
61200;SDS011;47065;52.898;6.992;2023-05-17T07:50:35;24.38;;;3.55;;
61200;SDS011;47065;52.898;6.992;2023-05-17T07:53:01;16.40;;;3.20;;
61200;SDS011;47065;52.898;6.992;2023-05-17T07:55:26;20.75;;;2.67;;
61200;SDS011;47065;52.898;6.992;2023-05-17T07:57:52;13.55;;;2.95;;
61200;SDS011;47065;52.898;6.992;2023-05-17T08:00:18;14.32;;;2.40;;
61200;SDS011;47065;52.898;6.992;2023-05-17T08:02:44;9.75;;;2.38;;
61200;SDS011;47065;52.898;6.992;2023-05-17T08:05:10;13.07;;;2.20;;
61200;SDS011;47065;52.898;6.992;2023-05-17T08:07:36;11.20;;;2.10;;
61200;SDS011;47065;52.898;6.992;2023-05-17T08:10:02;9.77;;;2.47;;
61200;SDS011;47065;52.898;6.992;2023-05-17T08:12:28;9.30;;;2.35;;
61200;SDS011;47065;52.898;6.992;2023-05-17T08:14:53;11.73;;;2.83;;
61200;SDS011;47065;52.898;6.992;2023-05-17T08:17:19;9.20;;;2.10;;
61200;SDS011;47065;52.898;6.992;2023-05-17T08:19:46;9.18;;;1.70;;
61200;SDS011;47065;52.898;6.992;2023-05-17T08:22:11;9.77;;;2.30;;
61200;SDS011;47065;52.898;6.992;2023-05-17T08:24:37;10.25;;;2.17;;
61200;SDS011;47065;52.898;6.992;2023-05-17T08:27:03;10.32;;;1.95;;
61200;SDS011;47065;52.898;6.992;2023-05-17T08:29:29;9.25;;;2.65;;
61200;SDS011;47065;52.898;6.992;2023-05-17T08:31:54;6.55;;;1.90;;
61200;SDS011;47065;52.898;6.992;2023-05-17T08:34:20;10.93;;;1.73;;
61200;SDS011;47065;52.898;6.992;2023-05-17T08:36:46;8.50;;;2.17;;
61200;SDS011;47065;52.898;6.992;2023-05-17T08:39:12;11.02;;;2.08;;
61200;SDS011;47065;52.898;6.992;2023-05-17T08:41:38;8.10;;;1.73;;
61200;SDS011;47065;52.898;6.992;2023-05-17T08:44:03;8.38;;;1.90;;
61200;SDS011;47065;52.898;6.992;2023-05-17T08:46:31;9.27;;;2.00;;
61200;SDS011;47065;52.898;6.992;2023-05-17T08:48:57;8.98;;;1.85;;
61200;SDS011;47065;52.898;6.992;2023-05-17T08:51:26;8.68;;;1.95;;
61200;SDS011;47065;52.898;6.992;2023-05-17T08:53:52;5.43;;;1.48;;
61200;SDS011;47065;52.898;6.992;2023-05-17T08:56:19;9.88;;;1.70;;
61200;SDS011;47065;52.898;6.992;2023-05-17T08:58:49;8.23;;;2.10;;
61200;SDS011;47065;52.898;6.992;2023-05-17T09:01:18;9.20;;;1.52;;
61200;SDS011;47065;52.898;6.992;2023-05-17T09:03:46;8.30;;;2.10;;
61200;SDS011;47065;52.898;6.992;2023-05-17T09:06:15;9.95;;;2.30;;
61200;SDS011;47065;52.898;6.992;2023-05-17T09:08:44;9.23;;;3.00;;
61200;SDS011;47065;52.898;6.992;2023-05-17T09:11:09;14.95;;;3.42;;
61200;SDS011;47065;52.898;6.992;2023-05-17T09:13:36;15.13;;;3.03;;
61200;SDS011;47065;52.898;6.992;2023-05-17T09:16:01;7.22;;;2.30;;
61200;SDS011;47065;52.898;6.992;2023-05-17T09:21:02;7.60;;;1.65;;
61200;SDS011;47065;52.898;6.992;2023-05-17T09:23:31;8.75;;;1.80;;
61200;SDS011;47065;52.898;6.992;2023-05-17T09:26:07;11.93;;;2.00;;
61200;SDS011;47065;52.898;6.992;2023-05-17T09:28:36;11.13;;;2.58;;
61200;SDS011;47065;52.898;6.992;2023-05-17T09:31:07;11.38;;;2.20;;
61200;SDS011;47065;52.898;6.992;2023-05-17T09:33:34;9.77;;;2.25;;
61200;SDS011;47065;52.898;6.992;2023-05-17T09:36:13;12.02;;;2.28;;
61200;SDS011;47065;52.898;6.992;2023-05-17T09:38:50;13.60;;;3.03;;
61200;SDS011;47065;52.898;6.992;2023-05-17T09:41:20;7.82;;;1.83;;
61200;SDS011;47065;52.898;6.992;2023-05-17T09:43:47;9.75;;;2.20;;
61200;SDS011;47065;52.898;6.992;2023-05-17T09:46:13;8.02;;;2.40;;
61200;SDS011;47065;52.898;6.992;2023-05-17T09:48:39;12.95;;;2.60;;
61200;SDS011;47065;52.898;6.992;2023-05-17T09:51:07;11.88;;;2.30;;
61200;SDS011;47065;52.898;6.992;2023-05-17T09:53:33;7.18;;;2.15;;
61200;SDS011;47065;52.898;6.992;2023-05-17T09:56:06;12.25;;;2.38;;
61200;SDS011;47065;52.898;6.992;2023-05-17T09:58:35;14.10;;;2.42;;
61200;SDS011;47065;52.898;6.992;2023-05-17T10:01:02;10.85;;;2.45;;
61200;SDS011;47065;52.898;6.992;2023-05-17T10:03:33;13.18;;;2.05;;
61200;SDS011;47065;52.898;6.992;2023-05-17T10:06:01;9.48;;;2.95;;
61200;SDS011;47065;52.898;6.992;2023-05-17T10:08:30;8.32;;;2.22;;
61200;SDS011;47065;52.898;6.992;2023-05-17T10:10:57;8.15;;;2.38;;
61200;SDS011;47065;52.898;6.992;2023-05-17T10:13:29;11.85;;;2.05;;
61200;SDS011;47065;52.898;6.992;2023-05-17T10:16:12;6.30;;;1.50;;
61200;SDS011;47065;52.898;6.992;2023-05-17T10:18:39;9.25;;;1.83;;
61200;SDS011;47065;52.898;6.992;2023-05-17T10:21:06;7.50;;;1.38;;
61200;SDS011;47065;52.898;6.992;2023-05-17T10:23:32;7.38;;;1.73;;
61200;SDS011;47065;52.898;6.992;2023-05-17T10:26:00;7.47;;;1.85;;
61200;SDS011;47065;52.898;6.992;2023-05-17T10:28:26;3.58;;;1.10;;
61200;SDS011;47065;52.898;6.992;2023-05-17T10:30:53;8.52;;;1.67;;
61200;SDS011;47065;52.898;6.992;2023-05-17T10:33:21;10.90;;;2.35;;
61200;SDS011;47065;52.898;6.992;2023-05-17T10:35:48;8.07;;;1.98;;
61200;SDS011;47065;52.898;6.992;2023-05-17T10:38:14;7.70;;;2.00;;
61200;SDS011;47065;52.898;6.992;2023-05-17T10:40:41;9.85;;;1.92;;
61200;SDS011;47065;52.898;6.992;2023-05-17T10:43:08;9.05;;;1.88;;
61200;SDS011;47065;52.898;6.992;2023-05-17T10:45:35;7.03;;;1.90;;
61200;SDS011;47065;52.898;6.992;2023-05-17T10:48:05;7.57;;;1.95;;
61200;SDS011;47065;52.898;6.992;2023-05-17T10:50:32;11.25;;;2.80;;
61200;SDS011;47065;52.898;6.992;2023-05-17T10:53:01;10.13;;;2.80;;
61200;SDS011;47065;52.898;6.992;2023-05-17T10:55:37;8.13;;;2.17;;
61200;SDS011;47065;52.898;6.992;2023-05-17T10:58:18;9.45;;;2.40;;
61200;SDS011;47065;52.898;6.992;2023-05-17T11:00:45;10.48;;;2.45;;
61200;SDS011;47065;52.898;6.992;2023-05-17T11:03:20;5.90;;;1.65;;
61200;SDS011;47065;52.898;6.992;2023-05-17T11:08:34;10.18;;;1.95;;
61200;SDS011;47065;52.898;6.992;2023-05-17T11:11:07;3.88;;;1.58;;
61200;SDS011;47065;52.898;6.992;2023-05-17T11:13:53;7.47;;;1.85;;
61200;SDS011;47065;52.898;6.992;2023-05-17T11:16:27;9.90;;;2.60;;
61200;SDS011;47065;52.898;6.992;2023-05-17T11:19:05;7.85;;;3.00;;
61200;SDS011;47065;52.898;6.992;2023-05-17T11:21:31;6.22;;;1.73;;
61200;SDS011;47065;52.898;6.992;2023-05-17T11:23:59;8.23;;;2.25;;
61200;SDS011;47065;52.898;6.992;2023-05-17T11:26:28;8.82;;;2.22;;
61200;SDS011;47065;52.898;6.992;2023-05-17T11:29:10;10.23;;;1.65;;
61200;SDS011;47065;52.898;6.992;2023-05-17T11:31:37;7.03;;;2.35;;
61200;SDS011;47065;52.898;6.992;2023-05-17T11:34:08;4.57;;;1.30;;
61200;SDS011;47065;52.898;6.992;2023-05-17T11:36:51;5.65;;;1.30;;
61200;SDS011;47065;52.898;6.992;2023-05-17T11:39:19;6.68;;;1.58;;
61200;SDS011;47065;52.898;6.992;2023-05-17T11:41:47;8.45;;;1.75;;
61200;SDS011;47065;52.898;6.992;2023-05-17T11:44:15;3.40;;;1.30;;
61200;SDS011;47065;52.898;6.992;2023-05-17T11:46:47;7.13;;;1.25;;
61200;SDS011;47065;52.898;6.992;2023-05-17T11:49:14;6.20;;;1.60;;
61200;SDS011;47065;52.898;6.992;2023-05-17T11:51:40;9.40;;;1.70;;
61200;SDS011;47065;52.898;6.992;2023-05-17T11:54:07;8.50;;;2.05;;
61200;SDS011;47065;52.898;6.992;2023-05-17T11:56:35;13.48;;;1.92;;
61200;SDS011;47065;52.898;6.992;2023-05-17T11:59:01;9.82;;;2.50;;
61200;SDS011;47065;52.898;6.992;2023-05-17T12:01:28;12.10;;;2.50;;
61200;SDS011;47065;52.898;6.992;2023-05-17T12:04:05;7.20;;;1.67;;
61200;SDS011;47065;52.898;6.992;2023-05-17T12:06:31;4.95;;;1.60;;
61200;SDS011;47065;52.898;6.992;2023-05-17T12:08:59;7.25;;;1.85;;
61200;SDS011;47065;52.898;6.992;2023-05-17T12:11:25;5.75;;;2.17;;
61200;SDS011;47065;52.898;6.992;2023-05-17T12:13:51;5.45;;;1.38;;
61200;SDS011;47065;52.898;6.992;2023-05-17T12:16:19;7.28;;;1.90;;
61200;SDS011;47065;52.898;6.992;2023-05-17T12:18:49;7.15;;;1.58;;
61200;SDS011;47065;52.898;6.992;2023-05-17T12:21:16;3.67;;;1.45;;
61200;SDS011;47065;52.898;6.992;2023-05-17T12:23:43;8.55;;;1.67;;
61200;SDS011;47065;52.898;6.992;2023-05-17T12:28:44;6.93;;;1.88;;
61200;SDS011;47065;52.898;6.992;2023-05-17T12:31:17;6.15;;;1.85;;
61200;SDS011;47065;52.898;6.992;2023-05-17T12:33:46;7.75;;;2.33;;
61200;SDS011;47065;52.898;6.992;2023-05-17T12:36:14;9.20;;;1.70;;
61200;SDS011;47065;52.898;6.992;2023-05-17T12:38:41;9.48;;;2.03;;
61200;SDS011;47065;52.898;6.992;2023-05-17T12:41:12;6.97;;;1.60;;
61200;SDS011;47065;52.898;6.992;2023-05-17T12:43:39;7.25;;;2.20;;
61200;SDS011;47065;52.898;6.992;2023-05-17T12:46:08;5.95;;;1.70;;
61200;SDS011;47065;52.898;6.992;2023-05-17T12:48:45;5.13;;;1.48;;
61200;SDS011;47065;52.898;6.992;2023-05-17T12:51:14;7.38;;;1.77;;
61200;SDS011;47065;52.898;6.992;2023-05-17T12:53:51;7.03;;;1.50;;
61200;SDS011;47065;52.898;6.992;2023-05-17T12:56:19;6.05;;;1.88;;
61200;SDS011;47065;52.898;6.992;2023-05-17T13:01:44;4.80;;;1.58;;
61200;SDS011;47065;52.898;6.992;2023-05-17T13:04:14;5.20;;;1.63;;
61200;SDS011;47065;52.898;6.992;2023-05-17T13:09:16;8.20;;;2.28;;
61200;SDS011;47065;52.898;6.992;2023-05-17T13:11:50;9.68;;;1.88;;
61200;SDS011;47065;52.898;6.992;2023-05-17T13:14:31;10.30;;;2.55;;
61200;SDS011;47065;52.898;6.992;2023-05-17T13:17:01;8.95;;;3.53;;
61200;SDS011;47065;52.898;6.992;2023-05-17T13:19:27;5.72;;;1.85;;
61200;SDS011;47065;52.898;6.992;2023-05-17T13:21:53;7.25;;;2.30;;
61200;SDS011;47065;52.898;6.992;2023-05-17T13:24:18;6.88;;;2.22;;
61200;SDS011;47065;52.898;6.992;2023-05-17T13:26:44;14.65;;;2.40;;
61200;SDS011;47065;52.898;6.992;2023-05-17T13:29:10;7.38;;;3.00;;
61200;SDS011;47065;52.898;6.992;2023-05-17T13:31:35;8.63;;;1.67;;
61200;SDS011;47065;52.898;6.992;2023-05-17T13:34:01;11.27;;;2.38;;
61200;SDS011;47065;52.898;6.992;2023-05-17T13:36:27;5.22;;;1.90;;
61200;SDS011;47065;52.898;6.992;2023-05-17T13:38:52;6.80;;;2.10;;
61200;SDS011;47065;52.898;6.992;2023-05-17T13:41:18;8.82;;;2.13;;
61200;SDS011;47065;52.898;6.992;2023-05-17T13:43:43;7.63;;;1.85;;
61200;SDS011;47065;52.898;6.992;2023-05-17T13:46:10;5.97;;;1.95;;
61200;SDS011;47065;52.898;6.992;2023-05-17T13:48:35;11.75;;;2.05;;
61200;SDS011;47065;52.898;6.992;2023-05-17T13:51:01;9.40;;;1.95;;
61200;SDS011;47065;52.898;6.992;2023-05-17T13:53:26;5.90;;;1.77;;
61200;SDS011;47065;52.898;6.992;2023-05-17T13:55:52;8.15;;;1.90;;
61200;SDS011;47065;52.898;6.992;2023-05-17T13:58:18;7.38;;;2.33;;
61200;SDS011;47065;52.898;6.992;2023-05-17T14:00:43;9.25;;;2.33;;
61200;SDS011;47065;52.898;6.992;2023-05-17T14:03:10;9.82;;;2.88;;
61200;SDS011;47065;52.898;6.992;2023-05-17T14:05:37;5.85;;;1.70;;
61200;SDS011;47065;52.898;6.992;2023-05-17T14:08:03;9.10;;;2.53;;
61200;SDS011;47065;52.898;6.992;2023-05-17T14:10:29;8.73;;;1.80;;
61200;SDS011;47065;52.898;6.992;2023-05-17T14:12:54;10.98;;;2.33;;
61200;SDS011;47065;52.898;6.992;2023-05-17T14:15:20;9.68;;;1.70;;
61200;SDS011;47065;52.898;6.992;2023-05-17T14:17:47;9.95;;;2.30;;
61200;SDS011;47065;52.898;6.992;2023-05-17T14:20:13;6.93;;;1.90;;
61200;SDS011;47065;52.898;6.992;2023-05-17T14:22:39;9.35;;;2.05;;
61200;SDS011;47065;52.898;6.992;2023-05-17T14:25:05;11.95;;;1.98;;
61200;SDS011;47065;52.898;6.992;2023-05-17T14:27:32;5.05;;;1.95;;
61200;SDS011;47065;52.898;6.992;2023-05-17T14:29:58;6.72;;;1.75;;
61200;SDS011;47065;52.898;6.992;2023-05-17T14:32:25;8.93;;;2.08;;
61200;SDS011;47065;52.898;6.992;2023-05-17T14:34:51;11.15;;;2.83;;
61200;SDS011;47065;52.898;6.992;2023-05-17T14:37:16;4.10;;;2.15;;
61200;SDS011;47065;52.898;6.992;2023-05-17T14:39:42;8.40;;;2.78;;
61200;SDS011;47065;52.898;6.992;2023-05-17T14:42:08;8.70;;;2.20;;
61200;SDS011;47065;52.898;6.992;2023-05-17T14:44:33;11.82;;;2.50;;
61200;SDS011;47065;52.898;6.992;2023-05-17T14:47:03;13.85;;;2.13;;
61200;SDS011;47065;52.898;6.992;2023-05-17T14:49:32;5.75;;;2.03;;
61200;SDS011;47065;52.898;6.992;2023-05-17T14:51:58;5.13;;;2.10;;
61200;SDS011;47065;52.898;6.992;2023-05-17T14:54:23;9.70;;;1.98;;
61200;SDS011;47065;52.898;6.992;2023-05-17T14:56:53;5.97;;;2.10;;
61200;SDS011;47065;52.898;6.992;2023-05-17T14:59:19;9.23;;;2.55;;
61200;SDS011;47065;52.898;6.992;2023-05-17T15:01:45;5.50;;;1.73;;
61200;SDS011;47065;52.898;6.992;2023-05-17T15:04:11;8.45;;;1.80;;